createdAt,value
2018-04-13T00:00:38.172Z,23.60
2018-04-13T00:03:05.199Z,25.10
2018-04-13T00:05:31.493Z,23.30
2018-04-13T00:07:58.490Z,22.00
2018-04-13T00:10:24.780Z,24.60
2018-04-13T00:12:50.999Z,25.07
2018-04-13T00:15:19.551Z,25.33
2018-04-13T00:17:45.787Z,26.60
2018-04-13T00:20:12.104Z,26.10
2018-04-13T00:22:39.118Z,25.80
2018-04-13T00:25:05.421Z,26.93
2018-04-13T00:27:31.624Z,27.70
2018-04-13T00:29:57.866Z,27.90
2018-04-13T00:32:24.143Z,24.50
2018-04-13T00:34:50.373Z,28.80
2018-04-13T00:37:16.625Z,28.00
2018-04-13T00:39:42.918Z,25.20
2018-04-13T00:42:09.161Z,24.53
2018-04-13T00:44:35.449Z,25.77
2018-04-13T00:47:01.732Z,26.80
2018-04-13T00:49:27.961Z,27.00
2018-04-13T00:51:54.217Z,26.17
2018-04-13T00:54:20.442Z,26.07
2018-04-13T00:56:46.679Z,26.23
2018-04-13T00:59:12.990Z,26.67
2018-04-13T01:01:39.964Z,27.90
2018-04-13T01:04:06.261Z,26.63
2018-04-13T01:06:32.483Z,26.37
2018-04-13T01:08:58.828Z,25.27
2018-04-13T01:11:25.084Z,24.67
2018-04-13T01:13:51.308Z,25.90
2018-04-13T01:16:17.551Z,26.37
2018-04-13T01:18:43.794Z,25.53
2018-04-13T01:21:10.037Z,24.73
2018-04-13T01:23:37.045Z,25.60
2018-04-13T01:26:03.283Z,23.80
2018-04-13T01:28:29.561Z,24.20
2018-04-13T01:30:55.804Z,25.10
2018-04-13T01:33:22.047Z,24.90
2018-04-13T01:35:48.333Z,25.27
2018-04-13T01:38:15.340Z,26.63
2018-04-13T01:40:41.673Z,27.27
2018-04-13T01:43:07.936Z,27.97
2018-04-13T01:45:35.197Z,27.50
2018-04-13T01:48:01.467Z,32.87
2018-04-13T01:50:27.704Z,34.20
2018-04-13T01:52:53.968Z,31.70
2018-04-13T01:55:20.306Z,34.90
2018-04-13T01:57:47.340Z,34.20
2018-04-13T02:00:14.959Z,35.57
2018-04-13T02:02:42.659Z,37.77
2018-04-13T02:05:08.743Z,39.43
2018-04-13T02:07:36.211Z,40.73
2018-04-13T02:10:03.029Z,42.10
2018-04-13T02:12:29.140Z,42.87
2018-04-13T02:14:55.933Z,43.57
2018-04-13T02:17:22.014Z,45.43
2018-04-13T02:19:48.112Z,45.53
2018-04-13T02:22:14.363Z,45.37
2018-04-13T02:24:42.452Z,48.07
2018-04-13T02:27:09.272Z,49.17
2018-04-13T02:29:35.345Z,45.97
2018-04-13T02:32:01.753Z,51.00
2018-04-13T02:34:28.166Z,52.07
2018-04-13T02:36:54.307Z,51.33
2018-04-13T02:39:20.560Z,50.10
2018-04-13T02:41:46.824Z,50.27
2018-04-13T02:44:13.102Z,48.77
2018-04-13T02:46:40.125Z,49.93
2018-04-13T02:49:06.416Z,48.90
2018-04-13T02:51:33.401Z,49.57
2018-04-13T02:53:59.707Z,47.43
2018-04-13T02:56:25.942Z,48.27
2018-04-13T02:58:52.224Z,47.50
2018-04-13T03:01:18.489Z,47.03
2018-04-13T03:03:45.520Z,50.50
2018-04-13T03:06:11.824Z,51.00
2018-04-13T03:08:38.837Z,50.80
2018-04-13T03:11:05.100Z,51.77
2018-04-13T03:13:31.371Z,50.10
2018-04-13T03:15:57.904Z,48.57
2018-04-13T03:18:24.159Z,48.87
2018-04-13T03:20:50.451Z,49.77
2018-04-13T03:23:16.695Z,49.20
2018-04-13T03:25:42.935Z,48.03
2018-04-13T03:28:09.228Z,48.63
2018-04-13T03:30:35.515Z,49.03
2018-04-13T03:33:02.356Z,47.40
2018-04-13T03:35:28.640Z,50.03
2018-04-13T03:37:54.880Z,48.63
2018-04-13T03:40:21.116Z,50.20
2018-04-13T03:42:47.369Z,50.77
2018-04-13T03:45:14.355Z,51.30
2018-04-13T03:47:40.607Z,48.07
2018-04-13T03:50:06.876Z,52.27
2018-04-13T03:52:33.137Z,49.37
2018-04-13T03:54:59.368Z,49.33
2018-04-13T03:57:25.613Z,49.23
2018-04-13T03:59:51.868Z,51.47
2018-04-13T04:02:18.128Z,50.00
2018-04-13T04:04:45.113Z,50.63
2018-04-13T04:07:11.365Z,49.17
2018-04-13T04:09:38.951Z,53.37
2018-04-13T04:12:05.176Z,49.10
2018-04-13T04:14:32.166Z,49.80
2018-04-13T04:16:58.438Z,51.30
2018-04-13T04:19:37.757Z,62.57
2018-04-13T04:22:16.432Z,55.63
2018-04-13T04:24:54.975Z,52.80
2018-04-13T04:27:21.236Z,51.70
2018-04-13T04:29:47.508Z,52.07
2018-04-13T04:32:13.797Z,51.87
2018-04-13T04:34:40.047Z,50.40
2018-04-13T04:37:07.052Z,52.87
2018-04-13T04:39:33.328Z,50.50
2018-04-13T04:42:00.344Z,50.23
2018-04-13T04:44:26.607Z,49.10
2018-04-13T04:46:52.832Z,48.03
2018-04-13T04:49:19.864Z,47.70
2018-04-13T04:51:46.156Z,47.47
2018-04-13T04:54:12.436Z,49.17
2018-04-13T04:56:38.715Z,50.30
2018-04-13T04:59:05.005Z,52.47
2018-04-13T05:01:32.013Z,49.47
2018-04-13T05:03:58.328Z,49.70
2018-04-13T05:06:25.234Z,47.37
2018-04-13T05:08:51.484Z,47.37
2018-04-13T05:11:18.604Z,50.07
2018-04-13T05:13:44.857Z,45.57
2018-04-13T05:16:11.124Z,48.40
2018-04-13T05:18:37.477Z,46.07
2018-04-13T05:21:04.515Z,48.90
2018-04-13T05:23:30.916Z,47.23
2018-04-13T05:25:57.211Z,46.30
2018-04-13T05:28:24.211Z,43.43
2018-04-13T05:30:51.206Z,46.47
2018-04-13T05:33:17.272Z,43.67
2018-04-13T05:35:43.620Z,47.77
2018-04-13T05:38:10.628Z,46.43
2018-04-13T05:40:36.869Z,46.30
2018-04-13T05:43:03.141Z,46.73
2018-04-13T05:45:29.412Z,46.07
2018-04-13T05:47:55.672Z,44.80
2018-04-13T05:50:21.955Z,44.30
2018-04-13T05:52:48.356Z,48.33
2018-04-13T05:55:14.670Z,44.20
2018-04-13T05:57:41.700Z,49.63
2018-04-13T06:00:09.073Z,49.00
2018-04-13T06:02:36.172Z,47.47
2018-04-13T06:05:02.467Z,49.50
2018-04-13T06:07:28.724Z,51.40
2018-04-13T06:09:54.991Z,51.23
2018-04-13T06:12:21.992Z,50.10
2018-04-13T06:14:48.293Z,47.33
2018-04-13T06:17:15.303Z,46.77
2018-04-13T06:19:41.587Z,46.20
2018-04-13T06:22:08.608Z,44.73
2018-04-13T06:24:34.846Z,44.87
2018-04-13T06:27:01.072Z,43.33
2018-04-13T06:29:27.343Z,42.93
2018-04-13T06:31:53.603Z,42.50
2018-04-13T06:34:19.839Z,42.70
2018-04-13T06:36:46.865Z,43.30
2018-04-13T06:39:13.176Z,41.20
2018-04-13T06:41:40.163Z,41.17
2018-04-13T06:44:06.395Z,41.93
2018-04-13T06:46:32.696Z,41.43
2018-04-13T06:48:58.962Z,43.90
2018-04-13T06:51:25.208Z,41.60
2018-04-13T06:53:51.476Z,42.07
2018-04-13T06:56:17.733Z,43.57
2018-04-13T06:58:43.988Z,42.53
2018-04-13T07:01:10.271Z,42.17
2018-04-13T07:03:36.544Z,45.30
2018-04-13T07:06:02.845Z,42.37
2018-04-13T07:08:29.103Z,41.60
2018-04-13T07:10:55.424Z,44.43
2018-04-13T07:13:22.427Z,44.10
2018-04-13T07:15:49.518Z,43.10
2018-04-13T07:18:15.773Z,44.00
2018-04-13T07:20:42.837Z,43.07
2018-04-13T07:23:09.880Z,43.50
2018-04-13T07:25:36.124Z,43.83
2018-04-13T07:28:02.519Z,45.40
2018-04-13T07:30:28.800Z,46.20
2018-04-13T07:32:55.174Z,43.37
2018-04-13T07:35:21.469Z,40.87
2018-04-13T07:37:47.742Z,42.23
2018-04-13T07:40:13.990Z,42.20
2018-04-13T07:42:41.006Z,39.83
2018-04-13T07:45:07.670Z,40.70
2018-04-13T07:47:33.786Z,37.83
2018-04-13T07:50:00.036Z,38.20
2018-04-13T07:52:26.343Z,39.17
2018-04-13T07:54:52.599Z,40.00
2018-04-13T07:57:18.865Z,39.23
2018-04-13T07:59:45.513Z,37.60
2018-04-13T08:02:13.574Z,39.73
2018-04-13T08:04:40.032Z,38.50
2018-04-13T08:07:06.145Z,37.50
2018-04-13T08:09:32.396Z,37.67
2018-04-13T08:11:58.937Z,34.67
2018-04-13T08:14:27.656Z,34.90
2018-04-13T08:16:53.937Z,36.57
2018-04-13T08:19:20.186Z,34.47
2018-04-13T08:21:46.448Z,33.27
2018-04-13T08:24:12.696Z,36.40
2018-04-13T08:26:39.694Z,35.47
2018-04-13T08:29:05.927Z,36.07
2018-04-13T08:31:32.191Z,34.50
2018-04-13T08:33:58.474Z,34.77
2018-04-13T08:36:25.528Z,36.80
2018-04-13T08:38:51.800Z,36.93
2018-04-13T08:41:18.062Z,35.37
2018-04-13T08:43:44.324Z,38.10
2018-04-13T08:46:10.574Z,34.00
2018-04-13T08:48:37.701Z,28.57
2018-04-13T08:51:03.875Z,23.63
2018-04-13T08:53:30.132Z,22.07
2018-04-13T08:55:56.419Z,23.20
2018-04-13T08:58:22.664Z,22.40
2018-04-13T09:00:49.696Z,20.90
2018-04-13T09:03:15.967Z,20.60
2018-04-13T09:05:42.295Z,19.70
2018-04-13T09:08:08.542Z,18.40
2018-04-13T09:10:34.792Z,20.33
2018-04-13T09:13:01.082Z,20.47
2018-04-13T09:15:27.330Z,19.93
2018-04-13T09:17:54.327Z,20.30
2018-04-13T09:20:20.608Z,19.97
2018-04-13T09:22:47.643Z,21.40
2018-04-13T09:25:13.933Z,23.50
2018-04-13T09:27:40.944Z,21.80
2018-04-13T09:30:07.208Z,21.30
2018-04-13T09:32:33.465Z,21.47
2018-04-13T09:35:00.502Z,20.50
2018-04-13T09:37:26.766Z,18.33
2018-04-13T09:39:53.012Z,18.90
2018-04-13T09:42:19.289Z,18.90
2018-04-13T09:44:45.556Z,18.23
2018-04-13T09:47:11.816Z,16.27
2018-04-13T09:49:38.130Z,16.97
2018-04-13T09:52:04.419Z,15.30
2018-04-13T09:54:30.772Z,13.30
2018-04-13T09:56:57.047Z,12.30
2018-04-13T09:59:23.331Z,12.03
2018-04-13T10:01:50.360Z,12.03
2018-04-13T10:04:16.632Z,11.40
2018-04-13T10:06:42.895Z,12.37
2018-04-13T10:09:09.136Z,12.77
2018-04-13T10:11:35.401Z,14.00
2018-04-13T10:14:01.672Z,14.80
2018-04-13T10:16:27.916Z,14.93
2018-04-13T10:18:54.209Z,16.30
2018-04-13T10:21:20.483Z,17.43
2018-04-13T10:23:46.759Z,18.33
2018-04-13T10:26:13.013Z,16.23
2018-04-13T10:28:39.251Z,16.97
2018-04-13T10:31:05.560Z,16.33
2018-04-13T10:33:31.832Z,17.47
2018-04-13T10:35:58.111Z,17.10
2018-04-13T10:38:24.358Z,16.70
2018-04-13T10:40:50.580Z,17.70
2018-04-13T10:43:17.577Z,19.50
2018-04-13T10:45:43.812Z,18.80
2018-04-13T10:48:10.035Z,18.50
2018-04-13T10:50:36.301Z,18.63
2018-04-13T10:53:02.532Z,20.63
2018-04-13T10:55:28.757Z,19.67
2018-04-13T10:57:54.998Z,20.50
2018-04-13T11:00:21.224Z,19.13
2018-04-13T11:02:47.480Z,19.90
2018-04-13T11:05:13.519Z,20.33
2018-04-13T11:07:39.598Z,21.43
2018-04-13T11:10:05.636Z,22.30
2018-04-13T11:12:31.664Z,22.53
2018-04-13T11:14:57.699Z,20.40
2018-04-13T11:17:24.480Z,24.53
2018-04-13T11:19:50.512Z,22.77
2018-04-13T11:22:17.405Z,21.53
2018-04-13T11:24:43.454Z,21.47
2018-04-13T11:27:09.524Z,21.00
2018-04-13T11:29:35.576Z,19.80
2018-04-13T11:32:02.351Z,23.60
2018-04-13T11:34:28.411Z,23.70
2018-04-13T11:36:54.481Z,23.40
2018-04-13T11:39:20.529Z,21.00
2018-04-13T11:41:47.331Z,22.93
2018-04-13T11:44:13.399Z,21.37
2018-04-13T11:46:39.453Z,21.50
2018-04-13T11:49:06.282Z,18.40
2018-04-13T11:51:32.319Z,18.67
2018-04-13T11:53:58.376Z,18.80
2018-04-13T11:56:24.436Z,20.37
2018-04-13T11:58:50.471Z,19.37
2018-04-13T12:01:17.261Z,18.43
2018-04-13T12:03:43.303Z,19.80
2018-04-13T12:06:09.332Z,18.27
2018-04-13T12:08:35.372Z,17.83
2018-04-13T12:11:01.410Z,16.30
2018-04-13T12:13:27.444Z,16.50
2018-04-13T12:15:53.520Z,17.17
2018-04-13T12:18:20.308Z,18.00
2018-04-13T12:20:46.368Z,16.83
2018-04-13T12:23:12.421Z,19.50
2018-04-13T12:25:38.519Z,17.07
2018-04-13T12:28:04.551Z,17.73
2018-04-13T12:30:30.583Z,18.30
2018-04-13T12:32:56.768Z,17.53
2018-04-13T12:35:22.807Z,17.03
2018-04-13T12:37:48.871Z,15.37
2018-04-13T12:40:15.644Z,14.70
2018-04-13T12:42:41.696Z,15.90
2018-04-13T12:45:07.730Z,14.90
2018-04-13T12:47:33.761Z,15.43
2018-04-13T12:49:59.795Z,15.77
2018-04-13T12:52:29.925Z,15.57
2018-04-13T12:54:56.913Z,13.97
2018-04-13T12:57:22.752Z,16.37
2018-04-13T12:59:48.784Z,16.43
2018-04-13T13:02:14.825Z,18.33
2018-04-13T13:04:40.853Z,17.40
2018-04-13T13:07:06.880Z,17.47
2018-04-13T13:09:33.265Z,17.10
2018-04-13T13:12:01.369Z,16.60
2018-04-13T13:14:27.403Z,16.60
2018-04-13T13:16:53.454Z,18.23
2018-04-13T13:19:19.517Z,17.67
2018-04-13T13:21:45.599Z,17.60
2018-04-13T13:24:11.677Z,16.60
2018-04-13T13:26:38.452Z,17.10
2018-04-13T13:29:04.489Z,17.63
2018-04-13T13:31:30.979Z,16.10
2018-04-13T13:33:59.816Z,18.57
2018-04-13T13:36:26.669Z,16.90
2018-04-13T13:38:53.536Z,17.80
2018-04-13T13:41:20.331Z,18.73
2018-04-13T13:43:46.369Z,17.77
2018-04-13T13:46:12.432Z,17.23
2018-04-13T13:48:38.491Z,18.20
2018-04-13T13:51:04.569Z,18.83
2018-04-13T13:53:30.661Z,17.57
2018-04-13T13:55:56.754Z,14.87
2018-04-13T13:58:22.829Z,16.00
2018-04-13T14:00:49.643Z,16.83
2018-04-13T14:03:15.739Z,16.90
2018-04-13T14:05:42.610Z,17.20
2018-04-13T14:08:08.699Z,16.07
2018-04-13T14:10:34.772Z,17.70
2018-04-13T14:13:00.920Z,18.13
2018-04-13T14:15:27.701Z,17.20
2018-04-13T14:17:53.739Z,15.73
2018-04-13T14:20:19.781Z,16.93
2018-04-13T14:22:45.925Z,17.07
2018-04-13T14:25:12.708Z,16.73
2018-04-13T14:27:38.760Z,15.40
2018-04-13T14:30:04.812Z,16.57
2018-04-13T14:32:30.890Z,16.87
2018-04-13T14:34:57.168Z,16.93
2018-04-13T14:37:23.256Z,14.40
2018-04-13T14:39:49.315Z,15.23
2018-04-13T14:42:15.458Z,15.57
2018-04-13T14:44:41.553Z,14.30
2018-04-13T14:47:08.404Z,13.70
2018-04-13T14:49:34.529Z,12.27
2018-04-13T14:52:01.348Z,13.00
2018-04-13T14:54:27.419Z,13.60
2018-04-13T14:56:54.192Z,14.33
2018-04-13T14:59:20.274Z,14.63
2018-04-13T15:01:46.313Z,13.23
2018-04-13T15:04:14.462Z,13.30
2018-04-13T15:06:40.536Z,14.80
2018-04-13T15:09:06.700Z,15.37
2018-04-13T15:11:33.533Z,16.53
2018-04-13T15:13:59.741Z,17.30
2018-04-13T15:16:25.814Z,15.03
2018-04-13T15:18:51.952Z,16.67
2018-04-13T15:21:17.992Z,17.13
2018-04-13T15:23:44.044Z,18.67
2018-04-13T15:26:10.843Z,15.60
2018-04-13T15:28:36.973Z,16.90
2018-04-13T15:31:03.104Z,17.07
2018-04-13T15:33:29.168Z,16.00
2018-04-13T15:35:55.256Z,16.17
2018-04-13T15:38:21.294Z,15.93
2018-04-13T15:40:50.607Z,16.83
2018-04-13T15:43:16.635Z,16.67
2018-04-13T15:45:42.677Z,17.07
2018-04-13T15:48:08.708Z,18.00
2018-04-13T15:50:34.739Z,16.27
2018-04-13T15:53:00.765Z,16.20
2018-04-13T15:55:26.842Z,18.83
2018-04-13T15:57:57.361Z,17.60
2018-04-13T16:00:23.465Z,17.37
2018-04-13T16:02:49.504Z,18.73
2018-04-13T16:05:15.550Z,18.93
2018-04-13T16:07:41.604Z,16.93
2018-04-13T16:10:08.060Z,17.90
2018-04-13T16:12:34.612Z,19.47
2018-04-13T16:15:01.421Z,19.13
2018-04-13T16:17:29.480Z,19.00
2018-04-13T16:19:55.613Z,19.33
2018-04-13T16:22:21.680Z,19.47
2018-04-13T16:24:47.749Z,17.80
2018-04-13T16:27:13.789Z,18.17
2018-04-13T16:29:39.863Z,17.57
2018-04-13T16:32:11.421Z,16.27
2018-04-13T16:34:37.499Z,15.47
2018-04-13T16:37:03.854Z,15.17
2018-04-13T16:39:29.904Z,15.87
2018-04-13T16:41:55.971Z,16.63
2018-04-13T16:44:22.760Z,15.50
2018-04-13T16:46:48.812Z,16.67
2018-04-13T16:49:15.628Z,15.60
2018-04-13T16:51:41.656Z,16.60
2018-04-13T16:54:08.424Z,16.30
2018-04-13T16:56:34.473Z,16.70
2018-04-13T16:59:00.539Z,16.53
2018-04-13T17:01:26.568Z,16.23
2018-04-13T17:03:52.587Z,16.07
2018-04-13T17:06:18.617Z,16.37
2018-04-13T17:08:44.824Z,19.10
2018-04-13T17:11:11.664Z,20.20
2018-04-13T17:13:37.827Z,19.90
2018-04-13T17:16:03.945Z,18.93
2018-04-13T17:18:30.924Z,23.53
2018-04-13T17:20:57.011Z,23.60
2018-04-13T17:23:23.039Z,21.97
2018-04-13T17:25:49.074Z,20.90
2018-04-13T17:28:15.297Z,21.20
2018-04-13T17:30:41.335Z,21.13
2018-04-13T17:33:07.363Z,19.87
2018-04-13T17:35:33.549Z,20.40
2018-04-13T17:38:00.719Z,19.80
2018-04-13T17:40:26.925Z,21.17
2018-04-13T17:42:53.187Z,20.90
2018-04-13T17:45:19.219Z,21.03
2018-04-13T17:47:45.279Z,20.43
2018-04-13T17:50:12.869Z,20.30
2018-04-13T17:52:39.717Z,20.13
2018-04-13T17:55:06.502Z,20.70
2018-04-13T17:57:32.540Z,19.90
2018-04-13T17:59:58.584Z,19.83
2018-04-13T18:02:24.621Z,19.53
2018-04-13T18:04:51.384Z,20.03
2018-04-13T18:07:17.412Z,19.20
2018-04-13T18:09:43.440Z,19.40
2018-04-13T18:12:09.505Z,20.50
2018-04-13T18:14:35.558Z,20.13
2018-04-13T18:17:01.716Z,19.37
2018-04-13T18:19:28.588Z,19.50
2018-04-13T18:21:54.680Z,18.53
2018-04-13T18:24:20.720Z,20.20
2018-04-13T18:26:47.026Z,19.97
2018-04-13T18:29:14.209Z,19.70
2018-04-13T18:31:40.547Z,19.87
2018-04-13T18:34:06.792Z,20.37
2018-04-13T18:36:33.055Z,19.20
2018-04-13T18:38:59.296Z,20.23
2018-04-13T18:41:25.540Z,20.47
2018-04-13T18:43:51.744Z,20.77
2018-04-13T18:46:17.993Z,20.43
2018-04-13T18:48:44.224Z,20.37
2018-04-13T18:51:11.375Z,19.57
2018-04-13T18:53:37.626Z,21.70
2018-04-13T18:56:04.564Z,19.27
2018-04-13T18:58:30.904Z,21.00
2018-04-13T19:00:57.160Z,20.73
2018-04-13T19:03:23.388Z,22.57
2018-04-13T19:05:49.611Z,21.57
2018-04-13T19:08:16.043Z,21.80
2018-04-13T19:10:42.291Z,21.90
2018-04-13T19:13:08.517Z,21.57
2018-04-13T19:15:34.741Z,22.00
2018-04-13T19:18:00.965Z,22.50
2018-04-13T19:20:27.974Z,22.63
2018-04-13T19:22:54.952Z,23.70
2018-04-13T19:25:21.200Z,23.60
2018-04-13T19:27:47.440Z,23.17
2018-04-13T19:30:14.409Z,24.03
2018-04-13T19:32:40.691Z,23.57
2018-04-13T19:35:06.935Z,24.07
2018-04-13T19:37:33.165Z,24.00
2018-04-13T19:39:59.556Z,24.00
2018-04-13T19:42:25.766Z,24.27
2018-04-13T19:44:52.006Z,23.30
2018-04-13T19:47:18.212Z,24.20
2018-04-13T19:49:44.426Z,24.87
2018-04-13T19:52:10.728Z,24.57
2018-04-13T19:54:36.968Z,24.63
2018-04-13T19:57:03.192Z,23.90
2018-04-13T19:59:29.433Z,24.93
2018-04-13T20:01:55.711Z,24.40
2018-04-13T20:04:22.747Z,25.50
2018-04-13T20:06:48.960Z,25.80
2018-04-13T20:09:15.233Z,24.00
2018-04-13T20:11:41.480Z,24.23
2018-04-13T20:14:08.476Z,26.83
2018-04-13T20:16:34.896Z,26.17
2018-04-13T20:19:01.907Z,26.33
2018-04-13T20:21:28.168Z,26.23
2018-04-13T20:23:54.408Z,27.27
2018-04-13T20:26:20.632Z,26.30
2018-04-13T20:28:47.488Z,27.70
2018-04-13T20:31:13.814Z,28.73
2018-04-13T20:33:40.023Z,28.27
2018-04-13T20:36:06.267Z,28.90
2018-04-13T20:38:32.564Z,30.43
2018-04-13T20:40:58.859Z,29.00
2018-04-13T20:43:25.120Z,30.13
2018-04-13T20:45:51.464Z,29.57
2018-04-13T20:48:17.715Z,30.70
2018-04-13T20:50:43.980Z,32.60
2018-04-13T20:53:10.363Z,31.10
2018-04-13T20:55:36.717Z,28.13
2018-04-13T20:58:03.036Z,30.93
2018-04-13T21:00:31.363Z,30.93
2018-04-13T21:02:57.624Z,31.63
2018-04-13T21:05:23.864Z,31.10
2018-04-13T21:07:50.167Z,30.60
2018-04-13T21:10:16.432Z,32.37
2018-04-13T21:12:42.728Z,31.83
2018-04-13T21:15:08.940Z,30.40
2018-04-13T21:17:35.173Z,30.90
2018-04-13T21:20:01.459Z,33.73
2018-04-13T21:22:27.713Z,29.77
2018-04-13T21:24:57.848Z,31.43
2018-04-13T21:27:24.116Z,32.53
2018-04-13T21:29:50.412Z,32.97
2018-04-13T21:32:16.771Z,33.70
2018-04-13T21:34:43.806Z,33.87
2018-04-13T21:37:10.848Z,34.23
2018-04-13T21:39:37.856Z,33.57
2018-04-13T21:42:04.128Z,33.87
2018-04-13T21:44:30.352Z,36.47
2018-04-13T21:46:56.636Z,35.60
2018-04-13T21:49:22.912Z,32.77
2018-04-13T21:51:49.168Z,34.03
2018-04-13T21:54:15.452Z,36.57
2018-04-13T21:56:41.735Z,34.33
2018-04-13T21:59:08.000Z,35.70
2018-04-13T22:01:34.296Z,35.93
2018-04-13T22:04:01.310Z,35.13
2018-04-13T22:06:27.588Z,37.10
2018-04-13T22:08:53.852Z,36.70
2018-04-13T22:11:20.892Z,38.10
2018-04-13T22:13:47.160Z,38.67
2018-04-13T22:16:14.162Z,40.73
2018-04-13T22:18:40.444Z,40.50
2018-04-13T22:21:06.712Z,38.43
2018-04-13T22:23:33.038Z,42.27
2018-04-13T22:26:00.109Z,37.70
2018-04-13T22:28:26.386Z,39.30
2018-04-13T22:30:52.699Z,40.50
2018-04-13T22:33:18.961Z,41.00
2018-04-13T22:35:45.174Z,40.30
2018-04-13T22:38:12.165Z,40.47
2018-04-13T22:40:38.469Z,40.17
2018-04-13T22:43:05.453Z,40.90
2018-04-13T22:45:31.913Z,42.17
2018-04-13T22:47:58.161Z,40.13
2018-04-13T22:50:24.931Z,40.10
2018-04-13T22:52:51.228Z,40.40
2018-04-13T22:55:17.465Z,43.20
2018-04-13T22:57:43.760Z,41.60
2018-04-13T23:00:10.016Z,42.00
2018-04-13T23:02:36.280Z,39.70
2018-04-13T23:05:03.278Z,40.83
2018-04-13T23:07:29.508Z,41.10
2018-04-13T23:09:55.707Z,41.93
2018-04-13T23:12:22.680Z,41.13
2018-04-13T23:14:49.706Z,42.47
2018-04-13T23:17:16.176Z,40.90
2018-04-13T23:19:43.170Z,42.47
2018-04-13T23:22:09.409Z,41.60
2018-04-13T23:24:35.680Z,41.53
2018-04-13T23:27:01.967Z,41.53
2018-04-13T23:29:28.199Z,39.03
2018-04-13T23:31:54.420Z,40.70
2018-04-13T23:34:20.645Z,41.13
2018-04-13T23:36:46.895Z,42.80
2018-04-13T23:39:13.117Z,43.80
2018-04-13T23:41:39.360Z,40.70
2018-04-13T23:44:05.564Z,42.20
2018-04-13T23:46:31.929Z,42.37
2018-04-13T23:48:58.191Z,41.27
2018-04-13T23:51:24.563Z,39.60
2018-04-13T23:53:51.540Z,42.37
2018-04-13T23:56:17.776Z,40.57
2018-04-13T23:58:44.752Z,40.90
